Time;durP1;ratioP1;P1;durP2;ratioP2;P2;SDS_P1;SDS_P2;PMS_P1;PMS_P2;Temp;Humidity;BMP_temperature;BMP_pressure;BME280_temperature;BME280_humidity;BME280_pressure;Samples;Min_cycle;Max_cycle;Signal;HPM_P1;HPM_P2
2022/08/27 00:01:51;;;;;;;7.20;3.30;;;;;;;;;;5088159;28;20732;-54
2022/08/27 00:04:17;;;;;;;9.43;4.30;;;;;;;;;;5089956;28;20330;-54
2022/08/27 00:06:43;;;;;;;7.50;3.77;;;;;;;;;;5086273;28;20346;-54
2022/08/27 00:09:10;;;;;;;6.50;3.63;;;;;;;;;;5088646;28;20277;-54
2022/08/27 00:11:36;;;;;;;11.67;3.93;;;;;;;;;;5090202;28;20206;-51
2022/08/27 00:14:02;;;;;;;9.17;4.13;;;;;;;;;;5091272;28;20199;-50
2022/08/27 00:16:29;;;;;;;8.83;4.23;;;;;;;;;;5093520;28;20202;-51
2022/08/27 00:18:55;;;;;;;9.02;4.32;;;;;;;;;;5090448;28;20406;-49
2022/08/27 00:21:21;;;;;;;10.83;4.00;;;;;;;;;;5093580;28;20195;-50
2022/08/27 00:23:47;;;;;;;13.07;4.53;;;;;;;;;;5094198;28;20629;-49
2022/08/27 00:26:15;;;;;;;8.93;3.90;;;;;;;;;;5092096;28;20210;-49
2022/08/27 00:28:42;;;;;;;6.50;3.30;;;;;;;;;;5093363;28;20279;-50
2022/08/27 00:31:08;;;;;;;4.43;3.37;;;;;;;;;;5091772;28;20239;-50
2022/08/27 00:33:34;;;;;;;8.30;4.20;;;;;;;;;;5091769;28;20297;-50
2022/08/27 00:36:01;;;;;;;10.70;4.33;;;;;;;;;;5093426;28;20538;-51
2022/08/27 00:38:28;;;;;;;9.33;4.50;;;;;;;;;;5093562;28;20222;-50
2022/08/27 00:40:54;;;;;;;10.83;3.93;;;;;;;;;;5091719;28;20210;-51
2022/08/27 00:43:22;;;;;;;10.47;4.13;;;;;;;;;;5093184;28;20228;-50
2022/08/27 00:45:49;;;;;;;11.90;4.27;;;;;;;;;;5093110;28;20292;-51
2022/08/27 00:48:16;;;;;;;9.40;4.63;;;;;;;;;;5091281;28;20708;-50
2022/08/27 00:50:46;;;;;;;11.17;3.97;;;;;;;;;;5093450;28;20743;-50
2022/08/27 00:53:14;;;;;;;6.50;3.33;;;;;;;;;;5091620;28;20198;-51
2022/08/27 00:55:43;;;;;;;6.57;3.00;;;;;;;;;;5093224;28;20202;-51
2022/08/27 00:58:12;;;;;;;5.77;3.37;;;;;;;;;;5093098;28;20672;-51
2022/08/27 01:00:39;;;;;;;8.20;3.40;;;;;;;;;;5091183;28;20198;-50
2022/08/27 01:03:06;;;;;;;5.83;2.97;;;;;;;;;;5092231;28;20294;-51
2022/08/27 01:05:32;;;;;;;10.13;3.20;;;;;;;;;;5090678;28;20199;-50
2022/08/27 01:08:01;;;;;;;7.13;2.90;;;;;;;;;;5090569;28;20230;-50
2022/08/27 01:10:28;;;;;;;9.00;3.37;;;;;;;;;;5089856;28;20618;-51
2022/08/27 01:12:55;;;;;;;9.70;2.90;;;;;;;;;;5093074;28;20237;-51
2022/08/27 01:15:22;;;;;;;10.20;3.50;;;;;;;;;;5092751;28;20290;-50
2022/08/27 01:17:50;;;;;;;6.33;3.00;;;;;;;;;;5092834;28;20209;-50
2022/08/27 01:20:18;;;;;;;8.07;3.37;;;;;;;;;;5092519;28;20198;-51
2022/08/27 01:22:49;;;;;;;8.00;2.80;;;;;;;;;;5092639;28;20700;-51
2022/08/27 01:25:17;;;;;;;14.37;3.50;;;;;;;;;;5090808;28;20206;-51
2022/08/27 01:27:44;;;;;;;9.03;3.00;;;;;;;;;;5091070;28;20230;-50
2022/08/27 01:30:11;;;;;;;5.63;2.77;;;;;;;;;;5092473;28;20210;-51
2022/08/27 01:32:37;;;;;;;5.87;2.57;;;;;;;;;;5092628;28;20194;-51
2022/08/27 01:35:04;;;;;;;8.20;2.97;;;;;;;;;;5092486;28;20637;-51
2022/08/27 01:37:32;;;;;;;4.93;2.50;;;;;;;;;;5092529;28;20198;-50
2022/08/27 01:39:58;;;;;;;3.87;2.50;;;;;;;;;;5092439;28;20624;-52
2022/08/27 01:42:27;;;;;;;6.17;2.53;;;;;;;;;;5092001;28;20237;-51
2022/08/27 01:44:54;;;;;;;8.77;3.03;;;;;;;;;;5090541;28;20617;-51
2022/08/27 01:47:22;;;;;;;7.53;2.70;;;;;;;;;;5090584;28;20257;-51
2022/08/27 01:49:48;;;;;;;4.90;2.30;;;;;;;;;;5092553;28;20199;-48
2022/08/27 01:52:15;;;;;;;6.97;2.63;;;;;;;;;;5092324;28;20199;-51
2022/08/27 01:54:41;;;;;;;6.67;2.60;;;;;;;;;;5092432;28;20604;-48
2022/08/27 01:57:08;;;;;;;7.97;2.83;;;;;;;;;;5091004;28;20234;-49
2022/08/27 01:59:35;;;;;;;7.10;2.43;;;;;;;;;;5092139;28;20286;-50
2022/08/27 02:02:01;;;;;;;8.53;2.87;;;;;;;;;;5090407;28;20194;-48
2022/08/27 02:04:28;;;;;;;6.10;2.90;;;;;;;;;;5092434;28;20206;-48
2022/08/27 02:06:54;;;;;;;7.90;3.07;;;;;;;;;;5092010;28;20243;-48
2022/08/27 02:09:20;;;;;;;6.97;2.57;;;;;;;;;;5091830;28;20222;-49
2022/08/27 02:11:46;;;;;;;7.83;2.93;;;;;;;;;;5091366;28;20308;-49
2022/08/27 02:14:12;;;;;;;4.90;2.23;;;;;;;;;;5091130;28;20195;-49
2022/08/27 02:16:40;;;;;;;6.47;2.57;;;;;;;;;;5090028;28;20206;-49
2022/08/27 02:19:06;;;;;;;6.70;2.37;;;;;;;;;;5089959;28;20194;-49
2022/08/27 02:21:32;;;;;;;4.63;2.37;;;;;;;;;;5091725;28;20217;-49
2022/08/27 02:23:58;;;;;;;8.17;2.60;;;;;;;;;;5089982;28;20221;-50
2022/08/27 02:26:26;;;;;;;6.53;2.60;;;;;;;;;;5091623;28;20291;-49
2022/08/27 02:28:52;;;;;;;4.67;2.50;;;;;;;;;;5091781;28;20222;-50
2022/08/27 02:31:18;;;;;;;7.93;3.03;;;;;;;;;;5091489;28;20205;-51
2022/08/27 02:33:46;;;;;;;6.50;2.30;;;;;;;;;;5091435;28;20223;-50
2022/08/27 02:36:12;;;;;;;6.63;2.53;;;;;;;;;;5091321;28;20680;-50
2022/08/27 02:38:38;;;;;;;7.87;2.30;;;;;;;;;;5091354;28;20540;-50
2022/08/27 02:41:04;;;;;;;5.97;2.33;;;;;;;;;;5091238;28;20672;-50
2022/08/27 02:43:30;;;;;;;6.37;2.47;;;;;;;;;;5091412;28;20295;-51
2022/08/27 02:45:56;;;;;;;4.80;2.10;;;;;;;;;;5091621;28;20199;-50
2022/08/27 02:48:24;;;;;;;4.57;2.30;;;;;;;;;;5091279;28;20334;-50
2022/08/27 02:50:51;;;;;;;7.07;1.93;;;;;;;;;;5091170;28;20764;-50
2022/08/27 02:53:17;;;;;;;6.97;2.47;;;;;;;;;;5091194;28;20645;-50
2022/08/27 02:55:43;;;;;;;5.10;2.23;;;;;;;;;;5090618;28;20198;-50
2022/08/27 02:58:11;;;;;;;7.67;2.70;;;;;;;;;;5091397;28;20198;-50
2022/08/27 03:00:37;;;;;;;4.57;2.33;;;;;;;;;;5091211;28;20208;-50
2022/08/27 03:03:03;;;;;;;8.67;2.43;;;;;;;;;;5090992;28;20274;-49
2022/08/27 03:05:29;;;;;;;5.17;2.20;;;;;;;;;;5091317;28;20202;-49
2022/08/27 03:07:58;;;;;;;12.07;2.73;;;;;;;;;;5090941;28;20234;-50
2022/08/27 03:10:24;;;;;;;7.93;4.20;;;;;;;;;;5091440;28;20198;-50
2022/08/27 03:12:50;;;;;;;6.80;3.70;;;;;;;;;;5091269;28;20232;-49
2022/08/27 03:15:17;;;;;;;6.17;2.50;;;;;;;;;;5091300;28;20236;-50
2022/08/27 03:20:29;;;;;;;3.37;2.10;;;;;;;;;;5091412;28;20325;-50
2022/08/27 03:22:56;;;;;;;7.60;2.60;;;;;;;;;;5091227;28;20276;-50
2022/08/27 03:25:22;;;;;;;6.30;2.60;;;;;;;;;;5091300;28;20195;-49
2022/08/27 03:27:48;;;;;;;7.03;2.10;;;;;;;;;;5091277;28;20231;-49
2022/08/27 03:30:16;;;;;;;4.43;1.90;;;;;;;;;;5090947;28;20281;-49
2022/08/27 03:32:43;;;;;;;4.07;2.10;;;;;;;;;;5091067;28;20194;-51
2022/08/27 03:35:10;;;;;;;4.63;2.07;;;;;;;;;;5091153;28;20209;-50
2022/08/27 03:37:36;;;;;;;3.80;1.83;;;;;;;;;;5091191;28;20199;-49
2022/08/27 03:40:05;;;;;;;5.23;2.10;;;;;;;;;;5091081;28;20201;-49
2022/08/27 03:42:32;;;;;;;5.27;1.80;;;;;;;;;;5091205;28;20214;-50
2022/08/27 03:44:58;;;;;;;5.57;2.30;;;;;;;;;;5091007;28;20223;-49
2022/08/27 03:47:24;;;;;;;5.70;2.20;;;;;;;;;;5090819;28;20279;-49
2022/08/27 03:49:51;;;;;;;7.73;2.30;;;;;;;;;;5092349;28;20194;-49
2022/08/27 03:52:18;;;;;;;10.80;2.40;;;;;;;;;;5094852;28;20203;-50
2022/08/27 03:54:44;;;;;;;5.90;2.40;;;;;;;;;;5095300;28;20199;-49
2022/08/27 03:57:11;;;;;;;6.10;2.10;;;;;;;;;;5094773;28;20748;-49
2022/08/27 03:59:37;;;;;;;5.93;2.40;;;;;;;;;;5094830;28;20203;-49
2022/08/27 04:02:04;;;;;;;3.00;2.10;;;;;;;;;;5094452;28;20201;-49
2022/08/27 04:04:30;;;;;;;6.27;2.43;;;;;;;;;;5094800;28;20207;-51
2022/08/27 04:06:56;;;;;;;5.87;2.40;;;;;;;;;;5094486;28;20298;-50
2022/08/27 04:09:22;;;;;;;6.37;2.60;;;;;;;;;;5091802;28;20774;-49
2022/08/27 04:11:48;;;;;;;9.60;3.07;;;;;;;;;;5094571;28;20718;-49
2022/08/27 04:14:16;;;;;;;6.90;2.43;;;;;;;;;;5094554;28;20210;-49
2022/08/27 04:16:42;;;;;;;7.07;2.40;;;;;;;;;;5094703;28;20202;-49
2022/08/27 04:19:11;;;;;;;8.90;2.80;;;;;;;;;;5094370;28;20193;-49
2022/08/27 04:21:37;;;;;;;6.90;2.60;;;;;;;;;;5094555;28;20191;-50
2022/08/27 04:24:03;;;;;;;10.40;2.88;;;;;;;;;;5093235;28;20401;-49
2022/08/27 04:26:29;;;;;;;5.35;2.72;;;;;;;;;;5092958;28;20484;-50
2022/08/27 04:28:56;;;;;;;8.68;2.85;;;;;;;;;;5093092;28;20447;-49
2022/08/27 04:31:24;;;;;;;7.05;2.67;;;;;;;;;;5092850;28;20447;-50
2022/08/27 04:33:52;;;;;;;7.28;2.83;;;;;;;;;;5092806;28;20431;-50
2022/08/27 04:36:18;;;;;;;8.20;3.20;;;;;;;;;;5094099;28;20194;-49
2022/08/27 04:38:44;;;;;;;6.40;2.47;;;;;;;;;;5094172;28;20226;-50
2022/08/27 04:41:20;;;;;;;7.80;2.40;;;;;;;;;;5094056;28;20642;-49
2022/08/27 04:43:46;;;;;;;5.50;2.30;;;;;;;;;;5094157;28;20226;-49
2022/08/27 04:46:12;;;;;;;7.97;2.30;;;;;;;;;;5093546;28;20199;-49
2022/08/27 04:48:39;;;;;;;3.37;2.20;;;;;;;;;;5093497;28;20343;-51
2022/08/27 04:51:05;;;;;;;8.43;2.70;;;;;;;;;;5093824;28;20574;-57
2022/08/27 04:53:31;;;;;;;8.43;2.70;;;;;;;;;;5092890;28;20621;-49
2022/08/27 04:55:57;;;;;;;6.53;2.37;;;;;;;;;;5093818;28;20669;-50
2022/08/27 04:58:25;;;;;;;8.33;2.23;;;;;;;;;;5093430;28;20191;-50
2022/08/27 05:00:52;;;;;;;5.67;2.27;;;;;;;;;;5093435;28;20289;-50
2022/08/27 05:03:19;;;;;;;5.97;2.07;;;;;;;;;;5093518;28;20245;-50
2022/08/27 05:05:46;;;;;;;6.23;2.30;;;;;;;;;;5093267;28;20204;-50
2022/08/27 05:08:13;;;;;;;8.07;2.47;;;;;;;;;;5093309;28;20227;-50
2022/08/27 05:10:40;;;;;;;5.40;2.10;;;;;;;;;;5093530;28;20191;-50
2022/08/27 05:13:06;;;;;;;8.00;2.00;;;;;;;;;;5093318;28;20676;-49
2022/08/27 05:15:32;;;;;;;5.17;2.17;;;;;;;;;;5093317;28;20209;-49
2022/08/27 05:17:59;;;;;;;3.83;2.20;;;;;;;;;;5093357;28;20298;-50
2022/08/27 05:20:25;;;;;;;3.73;1.90;;;;;;;;;;5093280;28;20631;-49
2022/08/27 05:22:53;;;;;;;4.43;1.77;;;;;;;;;;5092982;28;20289;-49
2022/08/27 05:25:19;;;;;;;4.97;1.90;;;;;;;;;;5093167;28;20194;-50
2022/08/27 05:27:44;;;;;;;4.93;1.87;;;;;;;;;;5093033;28;20230;-51
2022/08/27 05:30:11;;;;;;;4.90;1.83;;;;;;;;;;5093126;28;20198;-49
2022/08/27 05:32:38;;;;;;;5.13;1.90;;;;;;;;;;5092768;28;20199;-51
2022/08/27 05:35:04;;;;;;;5.00;1.90;;;;;;;;;;5092573;28;20259;-51
2022/08/27 05:37:32;;;;;;;4.27;2.10;;;;;;;;;;5093216;28;20199;-51
2022/08/27 05:40:00;;;;;;;3.63;1.73;;;;;;;;;;5093413;28;20202;-51
2022/08/27 05:42:28;;;;;;;3.47;1.80;;;;;;;;;;5092963;28;20209;-51
2022/08/27 05:44:55;;;;;;;4.47;1.77;;;;;;;;;;5093144;28;20202;-52
2022/08/27 05:47:21;;;;;;;5.10;2.10;;;;;;;;;;5092512;28;20218;-51
2022/08/27 05:49:47;;;;;;;4.97;2.00;;;;;;;;;;5093236;28;20212;-51
2022/08/27 05:52:13;;;;;;;3.47;1.77;;;;;;;;;;5093029;28;20194;-50
2022/08/27 05:54:39;;;;;;;5.97;2.25;;;;;;;;;;5091666;28;20410;-52
2022/08/27 05:57:07;;;;;;;3.97;1.87;;;;;;;;;;5092625;28;20683;-50
2022/08/27 06:02:19;;;;;;;4.97;2.27;;;;;;;;;;5092707;28;20567;-50
2022/08/27 06:04:45;;;;;;;4.67;1.70;;;;;;;;;;5092938;28;20281;-50
2022/08/27 06:07:12;;;;;;;7.27;1.97;;;;;;;;;;5091496;28;20606;-51
2022/08/27 06:09:38;;;;;;;3.43;1.80;;;;;;;;;;5091644;28;20324;-50
2022/08/27 06:12:05;;;;;;;3.93;2.00;;;;;;;;;;5091315;28;20206;-51
2022/08/27 06:14:32;;;;;;;4.83;1.90;;;;;;;;;;5092463;28;20278;-50
2022/08/27 06:16:59;;;;;;;9.23;2.73;;;;;;;;;;5092548;28;20202;-50
2022/08/27 06:19:25;;;;;;;6.90;1.90;;;;;;;;;;5092075;28;20238;-50
2022/08/27 06:21:51;;;;;;;7.13;2.40;;;;;;;;;;5092673;28;20222;-51
2022/08/27 06:24:17;;;;;;;4.57;1.83;;;;;;;;;;5092093;28;20745;-51
2022/08/27 06:26:44;;;;;;;5.70;2.20;;;;;;;;;;5092584;28;20281;-50
2022/08/27 06:29:11;;;;;;;11.27;2.47;;;;;;;;;;5092103;28;20227;-50
2022/08/27 06:31:38;;;;;;;5.93;1.90;;;;;;;;;;5091882;28;20194;-50
2022/08/27 06:34:05;;;;;;;4.40;1.90;;;;;;;;;;5092133;28;20225;-50
2022/08/27 06:36:32;;;;;;;4.73;1.77;;;;;;;;;;5091862;28;20195;-51
2022/08/27 06:38:58;;;;;;;5.83;2.07;;;;;;;;;;5092231;28;20195;-50
2022/08/27 06:41:26;;;;;;;5.97;1.97;;;;;;;;;;5091976;28;20203;-50
2022/08/27 06:43:52;;;;;;;3.03;1.50;;;;;;;;;;5092105;28;20195;-50
2022/08/27 06:46:20;;;;;;;6.93;2.20;;;;;;;;;;5091142;28;20203;-51
2022/08/27 06:48:50;;;;;;;5.10;2.10;;;;;;;;;;5090749;28;20302;-51
2022/08/27 06:51:18;;;;;;;5.10;1.90;;;;;;;;;;5091062;28;20271;-50
2022/08/27 06:53:45;;;;;;;7.33;2.60;;;;;;;;;;5091686;28;20194;-50
2022/08/27 06:56:12;;;;;;;3.73;1.80;;;;;;;;;;5091635;28;20232;-50
2022/08/27 06:58:38;;;;;;;3.87;1.80;;;;;;;;;;5091817;28;20195;-50
2022/08/27 07:01:11;;;;;;;7.63;2.58;;;;;;;;;;5090345;28;20397;-50
2022/08/27 07:03:37;;;;;;;4.73;1.87;;;;;;;;;;5091595;28;20257;-51
2022/08/27 07:06:05;;;;;;;4.10;1.83;;;;;;;;;;5091420;28;20661;-51
2022/08/27 07:08:31;;;;;;;6.40;2.43;;;;;;;;;;5091490;28;20227;-52
2022/08/27 07:10:57;;;;;;;6.03;2.10;;;;;;;;;;5091864;28;20275;-51
2022/08/27 07:13:23;;;;;;;5.80;2.10;;;;;;;;;;5091244;28;20195;-51
2022/08/27 07:15:49;;;;;;;8.63;2.07;;;;;;;;;;5091339;28;20224;-51
2022/08/27 07:18:15;;;;;;;6.17;2.20;;;;;;;;;;5089966;28;20195;-50
2022/08/27 07:20:41;;;;;;;7.83;2.40;;;;;;;;;;5091397;28;20241;-49
2022/08/27 07:23:09;;;;;;;6.27;1.87;;;;;;;;;;5092562;28;20206;-51
2022/08/27 07:25:35;;;;;;;4.23;1.90;;;;;;;;;;5094978;28;20695;-51
2022/08/27 07:28:01;;;;;;;7.50;1.93;;;;;;;;;;5095395;28;20756;-51
2022/08/27 07:30:27;;;;;;;3.27;2.03;;;;;;;;;;5095708;28;20198;-49
2022/08/27 07:32:53;;;;;;;8.10;2.33;;;;;;;;;;5094529;28;20196;-50
2022/08/27 07:35:19;;;;;;;3.73;1.70;;;;;;;;;;5095406;28;20241;-50
2022/08/27 07:37:45;;;;;;;11.63;7.53;;;;;;;;;;5115678;28;20182;-50
2022/08/27 07:40:14;;;;;;;7.70;2.60;;;;;;;;;;5115626;28;20651;-50
2022/08/27 07:45:25;;;;;;;7.93;2.27;;;;;;;;;;5115109;28;20198;-50
2022/08/27 07:47:51;;;;;;;6.77;2.20;;;;;;;;;;5115185;28;20218;-50
2022/08/27 07:50:17;;;;;;;4.77;2.53;;;;;;;;;;5115374;28;20659;-50
2022/08/27 07:52:43;;;;;;;8.07;2.10;;;;;;;;;;5114425;28;20200;-48
2022/08/27 07:55:10;;;;;;;6.40;2.53;;;;;;;;;;5115762;28;20186;-49
2022/08/27 07:57:37;;;;;;;7.10;2.50;;;;;;;;;;5115422;28;20243;-48
2022/08/27 08:00:04;;;;;;;4.90;2.23;;;;;;;;;;5107809;28;20203;-49
2022/08/27 08:02:30;;;;;;;8.73;7.43;;;;;;;;;;5095096;28;20202;-49
2022/08/27 08:04:56;;;;;;;7.00;2.70;;;;;;;;;;5094520;28;20954;-49
2022/08/27 08:07:23;;;;;;;7.43;2.20;;;;;;;;;;5091888;28;20239;-49
2022/08/27 08:09:49;;;;;;;5.90;2.10;;;;;;;;;;5092214;28;20218;-49
2022/08/27 08:12:15;;;;;;;8.40;2.70;;;;;;;;;;5093676;28;20202;-50
2022/08/27 08:14:43;;;;;;;6.63;2.13;;;;;;;;;;5093732;28;20241;-49
2022/08/27 08:17:09;;;;;;;5.13;2.30;;;;;;;;;;5093485;28;20197;-49
2022/08/27 08:19:35;;;;;;;6.70;2.20;;;;;;;;;;5092139;28;20201;-49
2022/08/27 08:22:01;;;;;;;9.23;2.50;;;;;;;;;;5093911;28;20206;-50
2022/08/27 08:24:27;;;;;;;5.30;2.00;;;;;;;;;;5091657;28;20199;-49
2022/08/27 08:26:53;;;;;;;5.37;2.10;;;;;;;;;;5092331;28;20277;-49
2022/08/27 08:29:19;;;;;;;4.73;2.00;;;;;;;;;;5091864;28;20311;-50
2022/08/27 08:31:46;;;;;;;7.47;3.67;;;;;;;;;;5094017;28;20264;-50
2022/08/27 08:34:12;;;;;;;7.53;2.17;;;;;;;;;;5093681;28;20673;-53
2022/08/27 08:36:38;;;;;;;6.60;2.23;;;;;;;;;;5093813;28;20203;-50
2022/08/27 08:39:04;;;;;;;5.30;2.00;;;;;;;;;;5093968;28;20190;-49
2022/08/27 08:41:37;;;;;;;5.87;2.20;;;;;;;;;;5093717;28;20274;-49
2022/08/27 08:44:07;;;;;;;7.83;2.50;;;;;;;;;;5093848;28;20199;-50
2022/08/27 08:46:36;;;;;;;4.50;1.90;;;;;;;;;;5093324;28;20198;-49
2022/08/27 08:49:07;;;;;;;7.80;2.33;;;;;;;;;;5093548;28;20222;-50
2022/08/27 08:51:39;;;;;;;4.93;2.20;;;;;;;;;;5093549;28;20207;-49
2022/08/27 08:54:08;;;;;;;8.47;2.50;;;;;;;;;;5093650;28;20214;-49
2022/08/27 08:56:39;;;;;;;10.40;2.60;;;;;;;;;;5093466;28;20204;-49
2022/08/27 08:59:08;;;;;;;8.77;2.33;;;;;;;;;;5093507;28;20202;-50
2022/08/27 09:01:34;;;;;;;6.30;2.35;;;;;;;;;;5092004;28;20892;-50
2022/08/27 09:04:02;;;;;;;6.53;2.55;;;;;;;;;;5092170;28;20456;-50
2022/08/27 09:06:36;;;;;;;3.93;2.00;;;;;;;;;;5090978;28;20815;-50
2022/08/27 09:09:08;;;;;;;7.03;2.30;;;;;;;;;;5090659;28;20218;-49
2022/08/27 09:11:38;;;;;;;5.43;2.40;;;;;;;;;;5092130;28;20759;-50
2022/08/27 09:14:07;;;;;;;7.97;2.37;;;;;;;;;;5091412;28;20202;-50
2022/08/27 09:16:33;;;;;;;4.93;2.93;;;;;;;;;;5092456;28;20192;-50
2022/08/27 09:19:01;;;;;;;8.13;3.30;;;;;;;;;;5092772;28;20264;-50
2022/08/27 09:21:31;;;;;;;7.67;2.00;;;;;;;;;;5090019;28;20209;-50
2022/08/27 09:24:07;;;;;;;6.37;2.20;;;;;;;;;;5090658;28;20672;-50
2022/08/27 09:26:35;;;;;;;6.47;2.07;;;;;;;;;;5090515;28;20696;-50
2022/08/27 09:29:14;;;;;;;5.67;2.20;;;;;;;;;;5092454;28;20241;-49
2022/08/27 09:31:41;;;;;;;7.33;2.40;;;;;;;;;;5090098;28;21146;-50
2022/08/27 09:34:07;;;;;;;4.60;2.10;;;;;;;;;;5092242;28;20238;-51
2022/08/27 09:36:33;;;;;;;7.60;2.30;;;;;;;;;;5090343;28;20202;-50
2022/08/27 09:39:03;;;;;;;6.23;2.20;;;;;;;;;;5092201;28;20283;-50
2022/08/27 09:41:32;;;;;;;6.17;2.27;;;;;;;;;;5090080;28;20201;-50
2022/08/27 09:43:58;;;;;;;5.37;1.87;;;;;;;;;;5091996;28;20198;-57
2022/08/27 09:46:25;;;;;;;4.73;2.10;;;;;;;;;;5088852;28;20196;-50
2022/08/27 09:48:51;;;;;;;5.33;2.00;;;;;;;;;;5089210;28;20645;-51
2022/08/27 09:51:19;;;;;;;7.23;2.60;;;;;;;;;;5090804;28;20252;-50
2022/08/27 09:53:47;;;;;;;5.07;2.47;;;;;;;;;;5091467;28;20199;-50
2022/08/27 09:56:21;;;;;;;8.60;2.30;;;;;;;;;;5090043;28;20254;-50
2022/08/27 09:58:50;;;;;;;9.27;2.00;;;;;;;;;;5092171;28;20191;-50
2022/08/27 10:01:17;;;;;;;4.90;3.03;;;;;;;;;;5092089;28;20209;-50
2022/08/27 10:03:43;;;;;;;8.33;3.40;;;;;;;;;;5092051;28;20195;-50
2022/08/27 10:06:09;;;;;;;9.53;2.30;;;;;;;;;;5092019;28;20239;-49
2022/08/27 10:08:38;;;;;;;9.73;2.60;;;;;;;;;;5092164;28;20310;-48
2022/08/27 10:11:06;;;;;;;6.33;2.30;;;;;;;;;;5092393;28;20195;-49
2022/08/27 10:13:36;;;;;;;7.80;2.50;;;;;;;;;;5092203;28;20200;-50
2022/08/27 10:16:18;;;;;;;8.00;2.00;;;;;;;;;;5092367;28;20262;-51
2022/08/27 10:18:49;;;;;;;5.87;1.93;;;;;;;;;;5092201;28;20199;-51
2022/08/27 10:21:18;;;;;;;6.60;2.30;;;;;;;;;;5092465;28;20227;-51
2022/08/27 10:23:46;;;;;;;6.07;2.47;;;;;;;;;;5092219;28;20196;-50
2022/08/27 10:26:14;;;;;;;6.30;2.40;;;;;;;;;;5092286;28;20195;-50
2022/08/27 10:28:46;;;;;;;8.80;2.40;;;;;;;;;;5091799;28;20261;-50
2022/08/27 10:31:18;;;;;;;7.60;2.60;;;;;;;;;;5091996;28;20220;-50
2022/08/27 10:33:48;;;;;;;7.83;2.40;;;;;;;;;;5091538;28;20206;-51
2022/08/27 10:36:19;;;;;;;12.13;5.43;;;;;;;;;;5091846;28;20279;-50
2022/08/27 10:38:49;;;;;;;8.03;2.67;;;;;;;;;;5092018;28;20191;-51
2022/08/27 10:41:16;;;;;;;9.37;3.07;;;;;;;;;;5091856;28;20392;-49
2022/08/27 10:44:00;;;;;;;9.10;2.93;;;;;;;;;;5091674;28;20275;-49
2022/08/27 10:46:34;;;;;;;8.50;2.47;;;;;;;;;;5091557;28;20200;-51
2022/08/27 10:49:04;;;;;;;6.03;2.13;;;;;;;;;;5091609;28;20215;-51
2022/08/27 10:51:31;;;;;;;7.67;4.03;;;;;;;;;;5091546;28;20217;-50
2022/08/27 10:54:03;;;;;;;8.13;2.70;;;;;;;;;;5091688;28;20196;-50
2022/08/27 10:56:31;;;;;;;8.30;2.90;;;;;;;;;;5091662;28;20194;-49
2022/08/27 10:59:02;;;;;;;6.77;2.07;;;;;;;;;;5091219;28;20280;-49
2022/08/27 11:01:37;;;;;;;10.27;2.93;;;;;;;;;;5091383;28;20198;-49
2022/08/27 11:04:05;;;;;;;10.63;3.03;;;;;;;;;;5091627;28;20244;-49
2022/08/27 11:06:35;;;;;;;9.20;2.60;;;;;;;;;;5091164;28;20226;-50
2022/08/27 11:09:05;;;;;;;7.13;2.73;;;;;;;;;;5090716;28;20643;-49
2022/08/27 11:11:33;;;;;;;11.40;4.07;;;;;;;;;;5091195;28;20650;-50
2022/08/27 11:14:00;;;;;;;9.47;2.90;;;;;;;;;;5090861;28;20200;-51
2022/08/27 11:16:42;;;;;;;9.17;2.70;;;;;;;;;;5091032;28;20211;-50
2022/08/27 11:19:14;;;;;;;10.17;2.77;;;;;;;;;;5091403;28;20194;-50
2022/08/27 11:21:43;;;;;;;8.90;2.83;;;;;;;;;;5091301;28;20211;-51
2022/08/27 11:24:14;;;;;;;7.70;2.80;;;;;;;;;;5090008;28;20406;-50
2022/08/27 11:26:41;;;;;;;9.85;2.70;;;;;;;;;;5089672;28;20410;-50
2022/08/27 11:29:10;;;;;;;7.50;2.70;;;;;;;;;;5091531;28;20219;-49
2022/08/27 11:31:38;;;;;;;6.90;2.77;;;;;;;;;;5091366;28;20280;-50
2022/08/27 11:34:06;;;;;;;7.70;2.90;;;;;;;;;;5091484;28;20671;-50
2022/08/27 11:36:43;;;;;;;8.37;3.57;;;;;;;;;;5091577;28;20204;-50
2022/08/27 11:39:14;;;;;;;8.03;3.07;;;;;;;;;;5091730;28;20245;-50
2022/08/27 11:41:56;;;;;;;8.43;2.90;;;;;;;;;;5091399;28;20991;-50
2022/08/27 11:44:23;;;;;;;9.30;3.00;;;;;;;;;;5091490;28;20206;-51
2022/08/27 11:46:50;;;;;;;14.77;3.27;;;;;;;;;;5091555;28;20203;-50
2022/08/27 11:49:27;;;;;;;8.33;2.83;;;;;;;;;;5091336;28;20233;-50
2022/08/27 11:52:00;;;;;;;10.53;2.90;;;;;;;;;;5090049;28;20223;-49
2022/08/27 11:54:28;;;;;;;8.00;2.67;;;;;;;;;;5091421;28;20210;-50
2022/08/27 11:56:54;;;;;;;6.10;2.30;;;;;;;;;;5091648;28;20258;-51
2022/08/27 11:59:22;;;;;;;7.93;3.73;;;;;;;;;;5091416;28;20648;-50
2022/08/27 12:01:48;;;;;;;7.78;3.30;;;;;;;;;;5089901;28;20398;-51
2022/08/27 12:04:32;;;;;;;9.93;2.90;;;;;;;;;;5090492;28;20394;-50
2022/08/27 12:07:02;;;;;;;8.23;3.03;;;;;;;;;;5091356;28;20245;-51
2022/08/27 12:09:28;;;;;;;5.73;2.30;;;;;;;;;;5091338;28;20229;-51
2022/08/27 12:12:00;;;;;;;6.47;2.60;;;;;;;;;;5092469;28;20869;-49
2022/08/27 12:14:35;;;;;;;5.33;2.63;;;;;;;;;;5093687;28;20197;-50
2022/08/27 12:17:07;;;;;;;6.63;2.30;;;;;;;;;;5094164;28;20669;-50
2022/08/27 12:19:41;;;;;;;7.00;2.37;;;;;;;;;;5092341;28;20663;-50
2022/08/27 12:22:17;;;;;;;5.43;2.37;;;;;;;;;;5094042;28;20206;-51
2022/08/27 12:24:50;;;;;;;9.60;2.87;;;;;;;;;;5093844;28;20228;-50
2022/08/27 12:27:27;;;;;;;8.57;2.90;;;;;;;;;;5093748;28;20219;-50
2022/08/27 12:29:55;;;;;;;7.23;2.77;;;;;;;;;;5093055;28;20219;-50
2022/08/27 12:32:25;;;;;;;7.97;2.50;;;;;;;;;;5093914;28;20201;-50
2022/08/27 12:34:54;;;;;;;6.80;2.53;;;;;;;;;;5094005;28;20188;-50
2022/08/27 12:37:25;;;;;;;9.53;2.50;;;;;;;;;;5093634;28;20200;-50
2022/08/27 12:39:52;;;;;;;11.57;5.80;;;;;;;;;;5093734;28;20219;-50
2022/08/27 12:42:20;;;;;;;5.40;2.90;;;;;;;;;;5093504;28;20670;-52
2022/08/27 12:44:46;;;;;;;9.90;2.70;;;;;;;;;;5093621;28;20956;-50
2022/08/27 12:47:14;;;;;;;7.47;2.33;;;;;;;;;;5093662;28;20211;-50
2022/08/27 12:49:43;;;;;;;7.67;2.63;;;;;;;;;;5093254;28;20235;-50
2022/08/27 12:52:14;;;;;;;6.87;2.47;;;;;;;;;;5093312;28;20208;-50
2022/08/27 12:54:45;;;;;;;6.70;2.43;;;;;;;;;;5092087;28;20761;-50
2022/08/27 12:57:16;;;;;;;5.60;2.10;;;;;;;;;;5093084;28;20226;-50
2022/08/27 12:59:52;;;;;;;7.17;2.67;;;;;;;;;;5093255;28;20200;-50
2022/08/27 13:02:25;;;;;;;6.57;2.33;;;;;;;;;;5093705;28;20242;-51
2022/08/27 13:04:52;;;;;;;7.47;2.50;;;;;;;;;;5093679;28;20195;-50
2022/08/27 13:07:25;;;;;;;8.50;2.63;;;;;;;;;;5093537;28;20254;-50
2022/08/27 13:09:52;;;;;;;6.50;2.07;;;;;;;;;;5093587;28;20278;-50
2022/08/27 13:12:18;;;;;;;6.87;2.37;;;;;;;;;;5093395;28;20246;-50
2022/08/27 13:14:44;;;;;;;13.40;5.70;;;;;;;;;;5093409;28;20227;-49
2022/08/27 13:17:14;;;;;;;5.70;2.40;;;;;;;;;;5093607;28;20227;-50
2022/08/27 13:19:44;;;;;;;5.30;2.10;;;;;;;;;;5093420;28;20195;-51
2022/08/27 13:22:11;;;;;;;4.47;2.00;;;;;;;;;;5093362;28;20661;-50
2022/08/27 13:24:44;;;;;;;6.50;2.30;;;;;;;;;;5093479;28;20274;-50
2022/08/27 13:27:12;;;;;;;5.80;2.70;;;;;;;;;;5092068;28;20662;-49
2022/08/27 13:29:38;;;;;;;5.63;2.40;;;;;;;;;;5093052;28;20226;-49
2022/08/27 13:32:05;;;;;;;8.00;4.97;;;;;;;;;;5093328;28;20229;-50
2022/08/27 13:34:34;;;;;;;6.33;3.13;;;;;;;;;;5093259;28;20192;-50
2022/08/27 13:37:02;;;;;;;5.97;2.50;;;;;;;;;;5093041;28;20203;-50
2022/08/27 13:39:29;;;;;;;5.20;2.47;;;;;;;;;;5092671;28;20219;-49
2022/08/27 13:41:57;;;;;;;7.77;2.30;;;;;;;;;;5092806;28;20683;-49
2022/08/27 13:44:27;;;;;;;8.57;2.30;;;;;;;;;;5093166;28;20199;-49
2022/08/27 13:46:59;;;;;;;8.73;2.00;;;;;;;;;;5092796;28;20615;-49
2022/08/27 13:49:26;;;;;;;5.63;2.17;;;;;;;;;;5092657;28;20252;-50
2022/08/27 13:51:58;;;;;;;6.43;2.00;;;;;;;;;;5092764;28;20207;-49
2022/08/27 13:54:24;;;;;;;5.40;2.20;;;;;;;;;;5092912;28;20202;-49
2022/08/27 13:57:02;;;;;;;8.43;2.13;;;;;;;;;;5092752;28;20601;-50
2022/08/27 13:59:30;;;;;;;5.13;2.07;;;;;;;;;;5092917;28;20194;-49
2022/08/27 14:01:57;;;;;;;9.97;2.33;;;;;;;;;;5092698;28;20755;-50
2022/08/27 14:04:25;;;;;;;6.90;2.30;;;;;;;;;;5092805;28;20218;-49
2022/08/27 14:06:51;;;;;;;7.90;2.23;;;;;;;;;;5092458;28;20311;-49
2022/08/27 14:09:20;;;;;;;7.00;2.17;;;;;;;;;;5092518;28;20231;-50
2022/08/27 14:11:47;;;;;;;5.37;2.27;;;;;;;;;;5092643;28;20207;-50
2022/08/27 14:14:14;;;;;;;10.00;7.07;;;;;;;;;;5092670;28;20191;-50
2022/08/27 14:16:41;;;;;;;8.90;2.60;;;;;;;;;;5092262;28;20207;-50
2022/08/27 14:19:08;;;;;;;9.80;2.70;;;;;;;;;;5092465;28;20194;-50
2022/08/27 14:21:35;;;;;;;7.00;2.43;;;;;;;;;;5092113;28;20244;-50
2022/08/27 14:24:01;;;;;;;6.00;2.37;;;;;;;;;;5092473;28;20251;-50
2022/08/27 14:26:28;;;;;;;5.43;2.17;;;;;;;;;;5092217;28;20195;-49
2022/08/27 14:28:54;;;;;;;7.63;2.37;;;;;;;;;;5092387;28;20315;-49
2022/08/27 14:31:21;;;;;;;7.13;2.20;;;;;;;;;;5092355;28;20194;-50
2022/08/27 14:33:48;;;;;;;5.40;2.20;;;;;;;;;;5091592;28;20203;-50
2022/08/27 14:36:14;;;;;;;5.20;2.00;;;;;;;;;;5092205;28;20669;-49
2022/08/27 14:38:43;;;;;;;5.27;2.27;;;;;;;;;;5092064;28;20198;-49
2022/08/27 14:41:09;;;;;;;4.03;2.07;;;;;;;;;;5092134;28;20278;-50
2022/08/27 14:43:35;;;;;;;8.20;2.20;;;;;;;;;;5092042;28;20294;-49
2022/08/27 14:46:02;;;;;;;5.77;2.20;;;;;;;;;;5091998;28;20199;-50
2022/08/27 14:48:30;;;;;;;6.00;2.30;;;;;;;;;;5091871;28;20245;-50
2022/08/27 14:50:58;;;;;;;5.20;2.10;;;;;;;;;;5091796;28;20664;-50
2022/08/27 14:53:25;;;;;;;9.03;2.43;;;;;;;;;;5091861;28;20215;-49
2022/08/27 14:55:51;;;;;;;6.83;2.23;;;;;;;;;;5091881;28;20199;-50